createdAt,value
2022-11-19T00:00:54.000Z,1002.5
2022-11-19T00:02:10.000Z,1002.5
2022-11-19T00:03:26.000Z,1002.5
2022-11-19T00:04:43.000Z,1002.5
2022-11-19T00:05:59.000Z,1002.5
2022-11-19T00:07:15.000Z,1002.4
2022-11-19T00:08:31.000Z,1002.5
2022-11-19T00:09:47.000Z,1002.4
2022-11-19T00:11:04.000Z,1002.5
2022-11-19T00:12:20.000Z,1002.5
2022-11-19T00:13:36.000Z,1002.5
2022-11-19T00:14:51.000Z,1002.5
2022-11-19T00:16:07.000Z,1002.5
2022-11-19T00:17:24.000Z,1002.5
2022-11-19T00:18:40.000Z,1002.4
2022-11-19T00:19:56.000Z,1002.5
2022-11-19T00:21:12.000Z,1002.5
2022-11-19T00:22:27.000Z,1002.5
2022-11-19T00:23:43.000Z,1002.5
2022-11-19T00:25:00.000Z,1002.5
2022-11-19T00:26:16.000Z,1002.5
2022-11-19T00:27:32.000Z,1002.4
2022-11-19T00:28:48.000Z,1002.5
2022-11-19T00:30:04.000Z,1002.5
2022-11-19T00:31:21.000Z,1002.6
2022-11-19T00:32:37.000Z,1002.6
2022-11-19T00:33:53.000Z,1002.6
2022-11-19T00:35:09.000Z,1002.6
2022-11-19T00:36:25.000Z,1002.6
2022-11-19T00:37:42.000Z,1002.6
2022-11-19T00:38:57.000Z,1002.6
2022-11-19T00:40:13.000Z,1002.7
2022-11-19T00:41:29.000Z,1002.6
2022-11-19T00:42:45.000Z,1002.6
2022-11-19T00:44:02.000Z,1002.6
2022-11-19T00:45:18.000Z,1002.7
2022-11-19T00:46:34.000Z,1002.6
2022-11-19T00:47:50.000Z,1002.7
2022-11-19T00:49:06.000Z,1002.7
2022-11-19T00:50:22.000Z,1002.7
2022-11-19T00:51:39.000Z,1002.6
2022-11-19T00:52:55.000Z,1002.7
2022-11-19T00:54:11.000Z,1002.7
2022-11-19T00:55:26.000Z,1002.7
2022-11-19T00:56:42.000Z,1002.7
2022-11-19T00:57:59.000Z,1002.7
2022-11-19T00:59:15.000Z,1002.7
2022-11-19T01:00:31.000Z,1002.7
2022-11-19T01:01:47.000Z,1002.7
2022-11-19T01:03:03.000Z,1002.7
2022-11-19T01:04:20.000Z,1002.7
2022-11-19T01:05:36.000Z,1002.8
2022-11-19T01:06:52.000Z,1002.7
2022-11-19T01:08:08.000Z,1002.8
2022-11-19T01:09:24.000Z,1002.8
2022-11-19T01:10:41.000Z,1002.8
2022-11-19T01:11:56.000Z,1002.9
2022-11-19T01:13:12.000Z,1002.9
2022-11-19T01:14:28.000Z,1003
2022-11-19T01:15:44.000Z,1002.9
2022-11-19T01:17:00.000Z,1003
2022-11-19T01:18:17.000Z,1003
2022-11-19T01:19:33.000Z,1003
2022-11-19T01:20:49.000Z,1003
2022-11-19T01:22:05.000Z,1003
2022-11-19T01:23:21.000Z,1002.9
2022-11-19T01:24:38.000Z,1003
2022-11-19T01:25:54.000Z,1003
2022-11-19T01:27:10.000Z,1002.9
2022-11-19T01:28:25.000Z,1003
2022-11-19T01:29:41.000Z,1003
2022-11-19T01:30:58.000Z,1003
2022-11-19T01:32:14.000Z,1003
2022-11-19T01:33:30.000Z,1003
2022-11-19T01:34:46.000Z,1003
2022-11-19T01:36:02.000Z,1003.1
2022-11-19T01:37:19.000Z,1003.1
2022-11-19T01:38:35.000Z,1003.1
2022-11-19T01:39:51.000Z,1003.1
2022-11-19T01:41:07.000Z,1003.2
2022-11-19T01:42:23.000Z,1003.2
2022-11-19T01:43:39.000Z,1003.2
2022-11-19T01:44:55.000Z,1003.2
2022-11-19T01:46:11.000Z,1003.1
2022-11-19T01:47:27.000Z,1003.2
2022-11-19T01:48:43.000Z,1003.1
2022-11-19T01:49:59.000Z,1003.2
2022-11-19T01:51:16.000Z,1003.1
2022-11-19T01:52:32.000Z,1003.2
2022-11-19T01:53:48.000Z,1003.2
2022-11-19T01:55:04.000Z,1003.2
2022-11-19T01:56:20.000Z,1003.3
2022-11-19T01:57:37.000Z,1003.3
2022-11-19T01:58:53.000Z,1003.3
2022-11-19T02:00:09.000Z,1003.3
2022-11-19T02:01:24.000Z,1003.3
2022-11-19T02:02:40.000Z,1003.3
2022-11-19T02:03:57.000Z,1003.3
2022-11-19T02:05:13.000Z,1003.3
2022-11-19T02:06:29.000Z,1003.3
2022-11-19T02:07:45.000Z,1003.4
2022-11-19T02:09:01.000Z,1003.3
2022-11-19T02:10:18.000Z,1003.4
2022-11-19T02:11:34.000Z,1003.3
2022-11-19T02:12:50.000Z,1003.4
2022-11-19T02:14:06.000Z,1003.3
2022-11-19T02:15:22.000Z,1003.4
2022-11-19T02:16:38.000Z,1003.4
2022-11-19T02:17:54.000Z,1003.4
2022-11-19T02:19:10.000Z,1003.4
2022-11-19T02:20:26.000Z,1003.4
2022-11-19T02:21:42.000Z,1003.4
2022-11-19T02:22:58.000Z,1003.4
2022-11-19T02:24:15.000Z,1003.5
2022-11-19T02:25:31.000Z,1003.5
2022-11-19T02:26:47.000Z,1003.5
2022-11-19T02:28:03.000Z,1003.4
2022-11-19T02:29:19.000Z,1003.6
2022-11-19T02:30:36.000Z,1003.6
2022-11-19T02:31:52.000Z,1003.5
2022-11-19T02:33:08.000Z,1003.5
2022-11-19T02:34:23.000Z,1003.5
2022-11-19T02:35:39.000Z,1003.6
2022-11-19T02:36:56.000Z,1003.6
2022-11-19T02:38:12.000Z,1003.6
2022-11-19T02:39:28.000Z,1003.7
2022-11-19T02:40:44.000Z,1003.7
2022-11-19T02:42:00.000Z,1003.6
2022-11-19T02:43:16.000Z,1003.6
2022-11-19T02:44:33.000Z,1003.7
2022-11-19T02:45:49.000Z,1003.6
2022-11-19T02:47:05.000Z,1003.7
2022-11-19T02:48:21.000Z,1003.6
2022-11-19T02:49:37.000Z,1003.6
2022-11-19T02:50:53.000Z,1003.6
2022-11-19T02:52:09.000Z,1003.7
2022-11-19T02:53:25.000Z,1003.7
2022-11-19T02:54:41.000Z,1003.6
2022-11-19T02:55:57.000Z,1003.7
2022-11-19T02:57:14.000Z,1003.7
2022-11-19T02:58:30.000Z,1003.7
2022-11-19T02:59:46.000Z,1003.7
2022-11-19T03:01:02.000Z,1003.7
2022-11-19T03:02:18.000Z,1003.6
2022-11-19T03:03:35.000Z,1003.6
2022-11-19T03:04:51.000Z,1003.6
2022-11-19T03:06:07.000Z,1003.7
2022-11-19T03:07:22.000Z,1003.7
2022-11-19T03:08:38.000Z,1003.7
2022-11-19T03:09:54.000Z,1003.7
2022-11-19T03:11:11.000Z,1003.7
2022-11-19T03:12:27.000Z,1003.6
2022-11-19T03:13:43.000Z,1003.6
2022-11-19T03:14:59.000Z,1003.6
2022-11-19T03:16:15.000Z,1003.6
2022-11-19T03:17:32.000Z,1003.5
2022-11-19T03:18:48.000Z,1003.7
2022-11-19T03:20:04.000Z,1003.7
2022-11-19T03:21:20.000Z,1003.7
2022-11-19T03:22:36.000Z,1003.7
2022-11-19T03:23:53.000Z,1003.7
2022-11-19T03:25:08.000Z,1003.7
2022-11-19T03:26:24.000Z,1003.6
2022-11-19T03:27:40.000Z,1003.7
2022-11-19T03:28:56.000Z,1003.7
2022-11-19T03:30:13.000Z,1003.7
2022-11-19T03:31:29.000Z,1003.7
2022-11-19T03:32:45.000Z,1003.7
2022-11-19T03:34:01.000Z,1003.8
2022-11-19T03:35:17.000Z,1003.7
2022-11-19T03:36:33.000Z,1003.8
2022-11-19T03:37:50.000Z,1003.8
2022-11-19T03:39:06.000Z,1003.8
2022-11-19T03:40:22.000Z,1003.9
2022-11-19T03:41:37.000Z,1004
2022-11-19T03:42:53.000Z,1003.9
2022-11-19T03:44:10.000Z,1003.9
2022-11-19T03:45:26.000Z,1004
2022-11-19T03:46:42.000Z,1004
2022-11-19T03:47:58.000Z,1004
2022-11-19T03:49:14.000Z,1004
2022-11-19T03:50:31.000Z,1004
2022-11-19T03:51:47.000Z,1004
2022-11-19T03:53:03.000Z,1004
2022-11-19T03:54:19.000Z,1004
2022-11-19T03:55:35.000Z,1003.9
2022-11-19T03:56:52.000Z,1004
2022-11-19T03:58:07.000Z,1003.9
2022-11-19T03:59:23.000Z,1004
2022-11-19T04:00:39.000Z,1003.9
2022-11-19T04:01:55.000Z,1003.9
2022-11-19T04:03:11.000Z,1003.9
2022-11-19T04:04:28.000Z,1004
2022-11-19T04:05:44.000Z,1004
2022-11-19T04:07:00.000Z,1003.9
2022-11-19T04:08:16.000Z,1004
2022-11-19T04:09:32.000Z,1003.9
2022-11-19T04:10:49.000Z,1004.1
2022-11-19T04:12:05.000Z,1004.1
2022-11-19T04:13:21.000Z,1004.1
2022-11-19T04:14:36.000Z,1004.1
2022-11-19T04:15:52.000Z,1004
2022-11-19T04:17:09.000Z,1004.1
2022-11-19T04:18:25.000Z,1004.1
2022-11-19T04:19:41.000Z,1004.1
2022-11-19T04:20:57.000Z,1004
2022-11-19T04:22:13.000Z,1004.1
2022-11-19T04:23:30.000Z,1004.2
2022-11-19T04:24:46.000Z,1004.2
2022-11-19T04:26:02.000Z,1004.1
2022-11-19T04:27:18.000Z,1004.2
2022-11-19T04:28:34.000Z,1004.1
2022-11-19T04:29:50.000Z,1004.2
2022-11-19T04:31:06.000Z,1004.2
2022-11-19T04:32:22.000Z,1004.2
2022-11-19T04:33:38.000Z,1004.2
2022-11-19T04:34:54.000Z,1004.3
2022-11-19T04:36:10.000Z,1004.3
2022-11-19T04:37:26.000Z,1004.3
2022-11-19T04:38:42.000Z,1004.2
2022-11-19T04:39:58.000Z,1004.3
2022-11-19T04:41:14.000Z,1004.3
2022-11-19T04:42:30.000Z,1004.3
2022-11-19T04:43:47.000Z,1004.3
2022-11-19T04:45:03.000Z,1004.4
2022-11-19T04:46:19.000Z,1004.3
2022-11-19T04:47:35.000Z,1004.3
2022-11-19T04:48:51.000Z,1004.4
2022-11-19T04:50:08.000Z,1004.3
2022-11-19T04:51:24.000Z,1004.4
2022-11-19T04:52:40.000Z,1004.4
2022-11-19T04:53:55.000Z,1004.5
2022-11-19T04:55:11.000Z,1004.5
2022-11-19T04:56:27.000Z,1004.5
2022-11-19T04:57:44.000Z,1004.5
2022-11-19T04:59:00.000Z,1004.6
2022-11-19T05:00:16.000Z,1004.5
2022-11-19T05:01:32.000Z,1004.6
2022-11-19T05:02:48.000Z,1004.6
2022-11-19T05:04:05.000Z,1004.6
2022-11-19T05:05:21.000Z,1004.6
2022-11-19T05:06:37.000Z,1004.6
2022-11-19T05:07:53.000Z,1004.6
2022-11-19T05:09:09.000Z,1004.7
2022-11-19T05:10:25.000Z,1004.6
2022-11-19T05:11:41.000Z,1004.6
2022-11-19T05:12:57.000Z,1004.7
2022-11-19T05:14:13.000Z,1004.7
2022-11-19T05:15:29.000Z,1004.7
2022-11-19T05:16:46.000Z,1004.7
2022-11-19T05:18:02.000Z,1004.7
2022-11-19T05:19:18.000Z,1004.7
2022-11-19T05:20:34.000Z,1004.7
2022-11-19T05:21:50.000Z,1004.7
2022-11-19T05:23:06.000Z,1004.7
2022-11-19T05:24:23.000Z,1004.7
2022-11-19T05:25:39.000Z,1004.8
2022-11-19T05:26:54.000Z,1004.8
2022-11-19T05:28:10.000Z,1004.8
2022-11-19T05:29:26.000Z,1004.8
2022-11-19T05:30:43.000Z,1004.8
2022-11-19T05:31:59.000Z,1004.9
2022-11-19T05:33:15.000Z,1004.9
2022-11-19T05:34:31.000Z,1004.9
2022-11-19T05:35:47.000Z,1004.9
2022-11-19T05:37:04.000Z,1004.9
2022-11-19T05:38:20.000Z,1004.9
2022-11-19T05:39:36.000Z,1004.8
2022-11-19T05:40:52.000Z,1004.9
2022-11-19T05:42:08.000Z,1004.9
2022-11-19T05:43:23.000Z,1005
2022-11-19T05:44:40.000Z,1005
2022-11-19T05:45:56.000Z,1004.9
2022-11-19T05:47:12.000Z,1004.9
2022-11-19T05:48:28.000Z,1004.9
2022-11-19T05:49:44.000Z,1004.9
2022-11-19T05:51:01.000Z,1004.9
2022-11-19T05:52:17.000Z,1005
2022-11-19T05:53:33.000Z,1005
2022-11-19T05:54:49.000Z,1005
2022-11-19T05:56:05.000Z,1005
2022-11-19T05:57:22.000Z,1005.1
2022-11-19T05:58:38.000Z,1005
2022-11-19T05:59:53.000Z,1005
2022-11-19T06:01:09.000Z,1005.1
2022-11-19T06:02:25.000Z,1005.1
2022-11-19T06:03:42.000Z,1005.1
2022-11-19T06:04:58.000Z,1005.1
2022-11-19T06:06:14.000Z,1005.2
2022-11-19T06:07:30.000Z,1005.2
2022-11-19T06:08:46.000Z,1005.2
2022-11-19T06:10:02.000Z,1005.2
2022-11-19T06:11:19.000Z,1005.1
2022-11-19T06:12:35.000Z,1005.2
2022-11-19T06:13:51.000Z,1005.2
2022-11-19T06:15:07.000Z,1005.2
2022-11-19T06:16:22.000Z,1005.2
2022-11-19T06:17:39.000Z,1005.2
2022-11-19T06:18:55.000Z,1005.2
2022-11-19T06:20:11.000Z,1005.2
2022-11-19T06:21:27.000Z,1005.2
2022-11-19T06:22:43.000Z,1005.3
2022-11-19T06:24:00.000Z,1005.3
2022-11-19T06:25:16.000Z,1005.3
2022-11-19T06:26:32.000Z,1005.2
2022-11-19T06:27:48.000Z,1005.3
2022-11-19T06:29:04.000Z,1005.3
2022-11-19T06:30:20.000Z,1005.4
2022-11-19T06:31:37.000Z,1005.3
2022-11-19T06:32:52.000Z,1005.4
2022-11-19T06:34:08.000Z,1005.4
2022-11-19T06:35:24.000Z,1005.3
2022-11-19T06:36:40.000Z,1005.4
2022-11-19T06:37:57.000Z,1005.5
2022-11-19T06:39:13.000Z,1005.5
2022-11-19T06:40:29.000Z,1005.6
2022-11-19T06:41:45.000Z,1005.5
2022-11-19T06:43:01.000Z,1005.5
2022-11-19T06:44:18.000Z,1005.5
2022-11-19T06:45:34.000Z,1005.5
2022-11-19T06:46:50.000Z,1005.6
2022-11-19T06:48:06.000Z,1005.6
2022-11-19T06:49:21.000Z,1005.6
2022-11-19T06:50:38.000Z,1005.6
2022-11-19T06:51:54.000Z,1005.7
2022-11-19T06:53:10.000Z,1005.6
2022-11-19T06:54:26.000Z,1005.6
2022-11-19T06:55:42.000Z,1005.7
2022-11-19T06:56:58.000Z,1005.6
2022-11-19T06:58:15.000Z,1005.6
2022-11-19T06:59:31.000Z,1005.7
2022-11-19T07:00:47.000Z,1005.7
2022-11-19T07:02:03.000Z,1005.7
2022-11-19T07:03:19.000Z,1005.8
2022-11-19T07:04:36.000Z,1005.8
2022-11-19T07:05:52.000Z,1005.8
2022-11-19T07:07:08.000Z,1005.8
2022-11-19T07:08:24.000Z,1005.8
2022-11-19T07:09:40.000Z,1005.9
2022-11-19T07:10:57.000Z,1005.8
2022-11-19T07:12:13.000Z,1005.8
2022-11-19T07:13:29.000Z,1005.9
2022-11-19T07:14:45.000Z,1005.9
2022-11-19T07:16:01.000Z,1005.8
2022-11-19T07:17:18.000Z,1005.8
2022-11-19T07:18:34.000Z,1005.9
2022-11-19T07:19:50.000Z,1005.8
2022-11-19T07:21:06.000Z,1005.8
2022-11-19T07:22:21.000Z,1005.9
2022-11-19T07:23:38.000Z,1006
2022-11-19T07:24:54.000Z,1005.9
2022-11-19T07:26:10.000Z,1005.8
2022-11-19T07:27:26.000Z,1005.9
2022-11-19T07:28:42.000Z,1005.9
2022-11-19T07:29:59.000Z,1005.9
2022-11-19T07:31:15.000Z,1006
2022-11-19T07:32:31.000Z,1006
2022-11-19T07:33:47.000Z,1006
2022-11-19T07:35:03.000Z,1006.1
2022-11-19T07:36:19.000Z,1006.1
2022-11-19T07:37:36.000Z,1006
2022-11-19T07:38:51.000Z,1006
2022-11-19T07:40:07.000Z,1006.1
2022-11-19T07:41:23.000Z,1005.9
2022-11-19T07:42:39.000Z,1006.1
2022-11-19T07:43:56.000Z,1006.1
2022-11-19T07:45:12.000Z,1006.1
2022-11-19T07:46:28.000Z,1006.1
2022-11-19T07:47:44.000Z,1006
2022-11-19T07:49:00.000Z,1006.1
2022-11-19T07:50:17.000Z,1006.1
2022-11-19T07:51:33.000Z,1006.2
2022-11-19T07:52:49.000Z,1006.2
2022-11-19T07:54:05.000Z,1006.1
2022-11-19T07:55:20.000Z,1006.2
2022-11-19T07:56:37.000Z,1006.2
2022-11-19T07:57:53.000Z,1006.2
2022-11-19T07:59:09.000Z,1006.1
2022-11-19T08:00:25.000Z,1006.1
2022-11-19T08:01:41.000Z,1006.1
2022-11-19T08:02:57.000Z,1006.2
2022-11-19T08:04:14.000Z,1006.2
2022-11-19T08:05:30.000Z,1006.2
2022-11-19T08:06:46.000Z,1006.3
2022-11-19T08:08:02.000Z,1006.2
2022-11-19T08:09:18.000Z,1006.2
2022-11-19T08:10:35.000Z,1006.2
2022-11-19T08:11:50.000Z,1006.3
2022-11-19T08:13:06.000Z,1006.3
2022-11-19T08:14:22.000Z,1006.3
2022-11-19T08:15:38.000Z,1006.3
2022-11-19T08:16:55.000Z,1006.3
2022-11-19T08:18:11.000Z,1006.4
2022-11-19T08:19:27.000Z,1006.4
2022-11-19T08:20:43.000Z,1006.4
2022-11-19T08:21:59.000Z,1006.4
2022-11-19T08:23:15.000Z,1006.4
2022-11-19T08:24:32.000Z,1006.4
2022-11-19T08:25:48.000Z,1006.4
2022-11-19T08:27:04.000Z,1006.4
2022-11-19T08:28:19.000Z,1006.4
2022-11-19T08:29:35.000Z,1006.4
2022-11-19T08:30:52.000Z,1006.5
2022-11-19T08:32:08.000Z,1006.5
2022-11-19T08:33:24.000Z,1006.5
2022-11-19T08:34:40.000Z,1006.5
2022-11-19T08:35:56.000Z,1006.5
2022-11-19T08:37:13.000Z,1006.4
2022-11-19T08:38:29.000Z,1006.5
2022-11-19T08:39:45.000Z,1006.4
2022-11-19T08:41:01.000Z,1006.4
2022-11-19T08:42:17.000Z,1006.3
2022-11-19T08:43:34.000Z,1006.4
2022-11-19T08:44:49.000Z,1006.4
2022-11-19T08:46:05.000Z,1006.5
2022-11-19T08:47:21.000Z,1006.5
2022-11-19T08:48:37.000Z,1006.5
2022-11-19T08:49:53.000Z,1006.5
2022-11-19T08:51:10.000Z,1006.5
2022-11-19T08:52:25.000Z,1006.6
2022-11-19T08:53:41.000Z,1006.6
2022-11-19T08:54:57.000Z,1006.5
2022-11-19T08:56:13.000Z,1006.6
2022-11-19T08:57:30.000Z,1006.6
2022-11-19T08:58:46.000Z,1006.5
2022-11-19T09:00:02.000Z,1006.5
2022-11-19T09:01:18.000Z,1006.6
2022-11-19T09:02:34.000Z,1006.6
2022-11-19T09:03:51.000Z,1006.6
2022-11-19T09:05:07.000Z,1006.6
2022-11-19T09:06:23.000Z,1006.6
2022-11-19T09:07:39.000Z,1006.6
2022-11-19T09:08:54.000Z,1006.6
2022-11-19T09:10:11.000Z,1006.6
2022-11-19T09:11:27.000Z,1006.6
2022-11-19T09:12:43.000Z,1006.7
2022-11-19T09:13:59.000Z,1006.7
2022-11-19T09:15:15.000Z,1006.8
2022-11-19T09:16:31.000Z,1006.7
2022-11-19T09:17:48.000Z,1006.7
2022-11-19T09:19:04.000Z,1006.8
2022-11-19T09:20:20.000Z,1006.7
2022-11-19T09:21:36.000Z,1006.8
2022-11-19T09:22:52.000Z,1006.7
2022-11-19T09:24:09.000Z,1006.7
2022-11-19T09:25:24.000Z,1006.8
2022-11-19T09:26:40.000Z,1006.8
2022-11-19T09:27:56.000Z,1006.7
2022-11-19T09:29:12.000Z,1006.7
2022-11-19T09:30:29.000Z,1006.8
2022-11-19T09:31:45.000Z,1006.9
2022-11-19T09:33:01.000Z,1006.8
2022-11-19T09:34:17.000Z,1006.8
2022-11-19T09:35:33.000Z,1006.8
2022-11-19T09:36:49.000Z,1006.8
2022-11-19T09:38:06.000Z,1006.7
2022-11-19T09:39:22.000Z,1006.8
2022-11-19T09:40:38.000Z,1006.8
2022-11-19T09:41:53.000Z,1006.8
2022-11-19T09:43:09.000Z,1006.8
2022-11-19T09:44:26.000Z,1006.8
2022-11-19T09:45:42.000Z,1006.8
2022-11-19T09:46:58.000Z,1006.9
2022-11-19T09:48:14.000Z,1006.8
2022-11-19T09:49:30.000Z,1006.9
2022-11-19T09:50:47.000Z,1006.8
2022-11-19T09:52:03.000Z,1006.7
2022-11-19T09:53:19.000Z,1006.8
2022-11-19T09:54:35.000Z,1006.8
2022-11-19T09:55:51.000Z,1006.8
2022-11-19T09:57:07.000Z,1006.7
2022-11-19T09:58:23.000Z,1006.7
2022-11-19T09:59:39.000Z,1006.7
2022-11-19T10:00:55.000Z,1006.7
2022-11-19T10:02:11.000Z,1006.7
2022-11-19T10:03:27.000Z,1006.6
2022-11-19T10:04:44.000Z,1006.7
2022-11-19T10:06:00.000Z,1006.7
2022-11-19T10:07:16.000Z,1006.6
2022-11-19T10:08:32.000Z,1006.7
2022-11-19T10:09:48.000Z,1006.7
2022-11-19T10:11:05.000Z,1006.6
2022-11-19T10:12:21.000Z,1006.7
2022-11-19T10:13:37.000Z,1006.7
2022-11-19T10:14:52.000Z,1006.8
2022-11-19T10:16:08.000Z,1006.6
2022-11-19T10:17:25.000Z,1006.6
2022-11-19T10:18:41.000Z,1006.7
2022-11-19T10:19:57.000Z,1006.5
2022-11-19T10:21:13.000Z,1006.5
2022-11-19T10:22:29.000Z,1006.6
2022-11-19T10:23:45.000Z,1006.6
2022-11-19T10:25:02.000Z,1006.5
2022-11-19T10:26:18.000Z,1006.7
2022-11-19T10:27:34.000Z,1006.6
2022-11-19T10:28:50.000Z,1006.6
2022-11-19T10:30:06.000Z,1006.6
2022-11-19T10:31:22.000Z,1006.7
2022-11-19T10:32:38.000Z,1006.5
2022-11-19T10:33:54.000Z,1006.6
2022-11-19T10:35:10.000Z,1006.6
2022-11-19T10:36:26.000Z,1006.6
2022-11-19T10:37:43.000Z,1006.6
2022-11-19T10:38:59.000Z,1006.6
2022-11-19T10:40:15.000Z,1006.7
2022-11-19T10:41:31.000Z,1006.7
2022-11-19T10:42:47.000Z,1006.6
2022-11-19T10:44:03.000Z,1006.6
2022-11-19T10:45:20.000Z,1006.6
2022-11-19T10:46:36.000Z,1006.5
2022-11-19T10:47:52.000Z,1006.6
2022-11-19T10:49:08.000Z,1006.6
2022-11-19T10:50:25.000Z,1006.7
2022-11-19T10:51:41.000Z,1006.6
2022-11-19T10:52:57.000Z,1006.7
2022-11-19T10:54:13.000Z,1006.6
2022-11-19T10:55:29.000Z,1006.6
2022-11-19T10:56:45.000Z,1006.6
2022-11-19T10:58:02.000Z,1006.5
2022-11-19T10:59:18.000Z,1006.4
2022-11-19T11:00:34.000Z,1006.5
2022-11-19T11:01:50.000Z,1006.4
2022-11-19T11:03:06.000Z,1006.4
2022-11-19T11:04:22.000Z,1006.5
2022-11-19T11:05:38.000Z,1006.4
2022-11-19T11:06:54.000Z,1006.4
2022-11-19T11:08:10.000Z,1006.5
2022-11-19T11:09:26.000Z,1006.4
2022-11-19T11:10:43.000Z,1006.4
2022-11-19T11:11:59.000Z,1006.4
2022-11-19T11:13:15.000Z,1006.4
2022-11-19T11:14:31.000Z,1006.4
2022-11-19T11:15:47.000Z,1006.4
2022-11-19T11:17:03.000Z,1006.4
2022-11-19T11:18:20.000Z,1006.4
2022-11-19T11:19:36.000Z,1006.3
2022-11-19T11:20:51.000Z,1006.3
2022-11-19T11:22:07.000Z,1006.3
2022-11-19T11:23:23.000Z,1006.2
2022-11-19T11:24:40.000Z,1006.3
2022-11-19T11:25:56.000Z,1006.3
2022-11-19T11:27:12.000Z,1006.3
2022-11-19T11:28:28.000Z,1006.3
2022-11-19T11:29:44.000Z,1006.3
2022-11-19T11:31:01.000Z,1006.4
2022-11-19T11:32:17.000Z,1006.3
2022-11-19T11:33:33.000Z,1006.4
2022-11-19T11:34:49.000Z,1006.4
2022-11-19T11:36:05.000Z,1006.4
2022-11-19T11:37:21.000Z,1006.4
2022-11-19T11:38:37.000Z,1006.3
2022-11-19T11:39:53.000Z,1006.3
2022-11-19T11:41:09.000Z,1006.3
2022-11-19T11:42:25.000Z,1006.4
2022-11-19T11:43:41.000Z,1006.4
2022-11-19T11:44:58.000Z,1006.4
2022-11-19T11:46:14.000Z,1006.4
2022-11-19T11:47:30.000Z,1006.3
2022-11-19T11:48:46.000Z,1006.4
2022-11-19T11:50:02.000Z,1006.4
2022-11-19T11:51:19.000Z,1006.4
2022-11-19T11:52:35.000Z,1006.4
2022-11-19T11:53:50.000Z,1006.4
2022-11-19T11:55:06.000Z,1006.3
2022-11-19T11:56:22.000Z,1006.4
2022-11-19T11:57:39.000Z,1006.4
2022-11-19T11:58:55.000Z,1006.3
2022-11-19T12:00:11.000Z,1006.3
2022-11-19T12:01:27.000Z,1006.3
2022-11-19T12:02:43.000Z,1006.3
2022-11-19T12:03:59.000Z,1006.2
2022-11-19T12:05:16.000Z,1006.3
2022-11-19T12:06:32.000Z,1006.3
2022-11-19T12:07:48.000Z,1006.3
2022-11-19T12:09:04.000Z,1006.2
2022-11-19T12:10:19.000Z,1006.2
2022-11-19T12:11:36.000Z,1006.2
2022-11-19T12:12:52.000Z,1006.2
2022-11-19T12:14:08.000Z,1006.1
2022-11-19T12:15:24.000Z,1006.1
2022-11-19T12:16:40.000Z,1006.1
2022-11-19T12:17:57.000Z,1006.2
2022-11-19T12:19:13.000Z,1006.2
2022-11-19T12:20:29.000Z,1006.1
2022-11-19T12:21:45.000Z,1006.2
2022-11-19T12:23:01.000Z,1006
2022-11-19T12:24:17.000Z,1006
2022-11-19T12:25:34.000Z,1006.1
2022-11-19T12:26:49.000Z,1006.1
2022-11-19T12:28:05.000Z,1006.1
2022-11-19T12:29:21.000Z,1006.1
2022-11-19T12:30:37.000Z,1006.1
2022-11-19T12:31:54.000Z,1006.1
2022-11-19T12:33:10.000Z,1006
2022-11-19T12:34:26.000Z,1006.1
2022-11-19T12:35:42.000Z,1006.1
2022-11-19T12:36:58.000Z,1006.1
2022-11-19T12:38:15.000Z,1006.1
2022-11-19T12:39:31.000Z,1006
2022-11-19T12:40:47.000Z,1006
2022-11-19T12:42:03.000Z,1006
2022-11-19T12:43:18.000Z,1006
2022-11-19T12:44:35.000Z,1006
2022-11-19T12:45:51.000Z,1006
2022-11-19T12:47:07.000Z,1006
2022-11-19T12:48:23.000Z,1006
2022-11-19T12:49:39.000Z,1006
2022-11-19T12:50:55.000Z,1005.9
2022-11-19T12:52:12.000Z,1005.9
2022-11-19T12:53:28.000Z,1005.9
2022-11-19T12:54:44.000Z,1005.9
2022-11-19T12:56:00.000Z,1005.9
2022-11-19T12:57:16.000Z,1005.9
2022-11-19T12:58:33.000Z,1005.8
2022-11-19T12:59:48.000Z,1005.8
2022-11-19T13:01:04.000Z,1005.9
2022-11-19T13:02:20.000Z,1005.9
2022-11-19T13:03:36.000Z,1005.8
2022-11-19T13:04:53.000Z,1005.9
2022-11-19T13:06:09.000Z,1005.8
2022-11-19T13:07:24.000Z,1005.9
2022-11-19T13:08:40.000Z,1005.9
2022-11-19T13:09:56.000Z,1005.9
2022-11-19T13:11:12.000Z,1005.9
2022-11-19T13:12:29.000Z,1005.9
2022-11-19T13:13:45.000Z,1005.9
2022-11-19T13:15:01.000Z,1005.9
2022-11-19T13:16:17.000Z,1005.9
2022-11-19T13:17:33.000Z,1005.9
2022-11-19T13:18:50.000Z,1005.9
2022-11-19T13:20:06.000Z,1005.9
2022-11-19T13:21:22.000Z,1005.9
2022-11-19T13:22:38.000Z,1005.9
2022-11-19T13:23:53.000Z,1006
2022-11-19T13:25:10.000Z,1006
2022-11-19T13:26:26.000Z,1005.9
2022-11-19T13:27:42.000Z,1005.9
2022-11-19T13:28:58.000Z,1006
2022-11-19T13:30:14.000Z,1006
2022-11-19T13:31:31.000Z,1006
2022-11-19T13:32:47.000Z,1005.9
2022-11-19T13:34:03.000Z,1005.9
2022-11-19T13:35:19.000Z,1006
2022-11-19T13:36:35.000Z,1006
2022-11-19T13:37:51.000Z,1006
2022-11-19T13:39:08.000Z,1006
2022-11-19T13:40:23.000Z,1005.9
2022-11-19T13:41:39.000Z,1005.9
2022-11-19T13:42:55.000Z,1006
2022-11-19T13:44:11.000Z,1005.9
2022-11-19T13:45:28.000Z,1005.8
2022-11-19T13:46:44.000Z,1005.9
2022-11-19T13:48:00.000Z,1006
2022-11-19T13:49:16.000Z,1005.9
2022-11-19T13:50:32.000Z,1006
2022-11-19T13:51:49.000Z,1006
2022-11-19T13:53:05.000Z,1006
2022-11-19T13:54:21.000Z,1006.1
2022-11-19T13:55:37.000Z,1006
2022-11-19T13:56:52.000Z,1006.1
2022-11-19T13:58:08.000Z,1006.1
2022-11-19T13:59:25.000Z,1006
2022-11-19T14:00:41.000Z,1006
2022-11-19T14:01:57.000Z,1006.1
2022-11-19T14:03:13.000Z,1006
2022-11-19T14:04:29.000Z,1006
2022-11-19T14:05:46.000Z,1006
2022-11-19T14:07:02.000Z,1006
2022-11-19T14:08:18.000Z,1006
2022-11-19T14:09:34.000Z,1006
2022-11-19T14:10:50.000Z,1006.1
2022-11-19T14:12:07.000Z,1006
2022-11-19T14:13:22.000Z,1006
2022-11-19T14:14:38.000Z,1006
2022-11-19T14:15:54.000Z,1006
2022-11-19T14:17:10.000Z,1006.1
2022-11-19T14:18:27.000Z,1006.1
2022-11-19T14:19:43.000Z,1006
2022-11-19T14:20:59.000Z,1006.1
2022-11-19T14:22:15.000Z,1006.1
2022-11-19T14:23:31.000Z,1006.1
2022-11-19T14:24:47.000Z,1006.2
2022-11-19T14:26:04.000Z,1006.1
2022-11-19T14:27:20.000Z,1006.1
2022-11-19T14:28:36.000Z,1006.2
2022-11-19T14:29:51.000Z,1006.2
2022-11-19T14:31:07.000Z,1006.2
2022-11-19T14:32:24.000Z,1006.2
2022-11-19T14:33:40.000Z,1006.2
2022-11-19T14:34:56.000Z,1006.2
2022-11-19T14:36:12.000Z,1006.2
2022-11-19T14:37:28.000Z,1006.3
2022-11-19T14:38:45.000Z,1006.3
2022-11-19T14:40:01.000Z,1006.2
2022-11-19T14:41:17.000Z,1006.3
2022-11-19T14:42:33.000Z,1006.2
2022-11-19T14:43:49.000Z,1006.2
2022-11-19T14:45:05.000Z,1006.3
2022-11-19T14:46:21.000Z,1006.2
2022-11-19T14:47:37.000Z,1006.3
2022-11-19T14:48:53.000Z,1006.2
2022-11-19T14:50:09.000Z,1006.3
2022-11-19T14:51:25.000Z,1006.2
2022-11-19T14:52:42.000Z,1006.3
2022-11-19T14:53:58.000Z,1006.3
2022-11-19T14:55:14.000Z,1006.3
2022-11-19T14:56:30.000Z,1006.3
2022-11-19T14:57:46.000Z,1006.3
2022-11-19T14:59:03.000Z,1006.3
2022-11-19T15:00:19.000Z,1006.4
2022-11-19T15:01:35.000Z,1006.4
2022-11-19T15:02:51.000Z,1006.3
2022-11-19T15:04:06.000Z,1006.3
2022-11-19T15:05:23.000Z,1006.3
2022-11-19T15:06:39.000Z,1006.3
2022-11-19T15:07:55.000Z,1006.3
2022-11-19T15:09:11.000Z,1006.3
2022-11-19T15:10:27.000Z,1006.2
2022-11-19T15:11:44.000Z,1006.2
2022-11-19T15:13:00.000Z,1006.2
2022-11-19T15:14:16.000Z,1006.2
2022-11-19T15:15:32.000Z,1006.2
2022-11-19T15:16:48.000Z,1006.3
2022-11-19T15:18:04.000Z,1006.2
2022-11-19T15:19:21.000Z,1006.3
2022-11-19T15:20:36.000Z,1006.3
2022-11-19T15:21:52.000Z,1006.3
2022-11-19T15:23:08.000Z,1006.3
2022-11-19T15:24:24.000Z,1006.3
2022-11-19T15:25:41.000Z,1006.3
2022-11-19T15:26:57.000Z,1006.3
2022-11-19T15:28:13.000Z,1006.3
2022-11-19T15:29:29.000Z,1006.3
2022-11-19T15:30:45.000Z,1006.4
2022-11-19T15:32:02.000Z,1006.4
2022-11-19T15:33:18.000Z,1006.4
2022-11-19T15:34:34.000Z,1006.5
2022-11-19T15:35:50.000Z,1006.5
2022-11-19T15:37:05.000Z,1006.5
2022-11-19T15:38:22.000Z,1006.5
2022-11-19T15:39:38.000Z,1006.6
2022-11-19T15:40:54.000Z,1006.5
2022-11-19T15:42:10.000Z,1006.5
2022-11-19T15:43:26.000Z,1006.5
2022-11-19T15:44:42.000Z,1006.6
2022-11-19T15:45:59.000Z,1006.5
2022-11-19T15:47:15.000Z,1006.5
2022-11-19T15:48:31.000Z,1006.5
2022-11-19T15:49:47.000Z,1006.5
2022-11-19T15:51:03.000Z,1006.5
2022-11-19T15:52:20.000Z,1006.6
2022-11-19T15:53:35.000Z,1006.6
2022-11-19T15:54:51.000Z,1006.5
2022-11-19T15:56:07.000Z,1006.5